Time;durP1;ratioP1;P1;durP2;ratioP2;P2;SDS_P1;SDS_P2;PMS_P1;PMS_P2;Temp;Humidity;BMP_temperature;BMP_pressure;BME280_temperature;BME280_humidity;BME280_pressure;Samples;Min_cycle;Max_cycle;Signal;HPM_P1;HPM_P2
2022/03/12 00:00:43;;;;;;;9.00;5.80;;;5.50;22.40;;;;;;4958179;28;20031;-72
2022/03/12 00:03:10;;;;;;;6.93;4.20;;;5.50;22.50;;;;;;4958720;28;20034;-71
2022/03/12 00:05:36;;;;;;;5.63;3.30;;;5.40;22.60;;;;;;4957376;29;20031;-73
2022/03/12 00:08:04;;;;;;;7.80;4.00;;;5.40;22.50;;;;;;4959201;28;20027;-72
2022/03/12 00:10:32;;;;;;;4.50;2.67;;;5.40;22.10;;;;;;4958416;28;20504;-72
2022/03/12 00:13:02;;;;;;;4.68;2.72;;;5.40;21.90;;;;;;4958510;28;20061;-72
2022/03/12 00:15:31;;;;;;;4.25;2.38;;;5.40;21.40;;;;;;4958547;28;20031;-71
2022/03/12 00:17:58;;;;;;;4.47;2.85;;;5.40;21.00;;;;;;4958459;28;20027;-72
2022/03/12 00:20:26;;;;;;;7.30;3.15;;;5.50;20.80;;;;;;4973328;28;20382;-73
2022/03/12 00:22:52;;;;;;;6.60;2.63;;;5.50;20.50;;;;;;4958228;28;20042;-72
2022/03/12 00:25:22;;;;;;;4.28;2.53;;;5.50;20.20;;;;;;4958335;29;20493;-72
2022/03/12 00:27:50;;;;;;;4.15;2.40;;;5.50;20.10;;;;;;4958029;28;20420;-74
2022/03/12 00:30:21;;;;;;;4.80;2.35;;;5.50;20.00;;;;;;4958006;28;20090;-73
2022/03/12 00:32:53;;;;;;;4.78;2.33;;;5.50;20.30;;;;;;4939050;29;20553;-72
2022/03/12 00:35:20;;;;;;;4.18;2.30;;;5.50;20.30;;;;;;4963232;28;20022;-72
2022/03/12 00:37:46;;;;;;;4.15;2.45;;;5.60;20.20;;;;;;4977367;28;20026;-72
2022/03/12 00:40:15;;;;;;;3.90;2.47;;;5.50;19.90;;;;;;4977431;28;20050;-73
2022/03/12 00:42:42;;;;;;;5.28;2.83;;;5.50;19.70;;;;;;4977322;28;20027;-73
2022/03/12 00:45:10;;;;;;;3.95;2.13;;;5.60;20.00;;;;;;4977313;28;20023;-73
2022/03/12 00:47:36;;;;;;;6.03;3.05;;;5.60;20.20;;;;;;4976019;28;20038;-73
2022/03/12 00:50:02;;;;;;;3.47;2.13;;;5.60;20.00;;;;;;4977228;28;20419;-71
2022/03/12 00:52:28;;;;;;;5.43;2.70;;;5.60;19.80;;;;;;4977102;28;20457;-72
2022/03/12 00:54:54;;;;;;;4.57;2.33;;;5.60;19.90;;;;;;4959696;28;20038;-74
2022/03/12 00:57:20;;;;;;;4.78;2.35;;;5.60;19.90;;;;;;4957719;28;20052;-72
2022/03/12 00:59:46;;;;;;;5.30;2.10;;;5.60;20.10;;;;;;4958083;28;20362;-74
2022/03/12 01:02:15;;;;;;;4.75;2.17;;;5.60;20.30;;;;;;4957889;28;20023;-73
2022/03/12 01:04:41;;;;;;;3.38;2.10;;;5.60;20.50;;;;;;4957183;29;20035;-72
2022/03/12 01:07:11;;;;;;;3.92;2.20;;;5.60;20.60;;;;;;4957703;28;20054;-72
2022/03/12 01:09:38;;;;;;;7.38;2.10;;;5.50;20.60;;;;;;4957332;28;20035;-73
2022/03/12 01:12:05;;;;;;;3.70;2.50;;;5.50;20.50;;;;;;4957486;28;20213;-74
2022/03/12 01:14:31;;;;;;;3.95;2.28;;;5.50;20.40;;;;;;4957459;28;20541;-74
2022/03/12 01:16:58;;;;;;;2.72;2.00;;;5.50;20.20;;;;;;4952140;28;20099;-73
2022/03/12 01:19:25;;;;;;;4.18;2.60;;;5.40;19.90;;;;;;4950561;28;20385;-71
2022/03/12 01:21:52;;;;;;;5.10;2.80;;;5.50;19.70;;;;;;4957196;28;20059;-72
2022/03/12 01:24:18;;;;;;;5.32;2.38;;;5.50;19.70;;;;;;4956059;29;20518;-72
2022/03/12 01:26:46;;;;;;;3.85;2.10;;;5.50;19.70;;;;;;4957201;28;20496;-73
2022/03/12 01:29:12;;;;;;;3.83;2.30;;;5.50;19.60;;;;;;4957201;29;20039;-73
2022/03/12 01:31:37;;;;;;;4.45;1.80;;;5.40;19.40;;;;;;4971956;28;20027;-73
2022/03/12 01:34:04;;;;;;;3.40;2.40;;;5.50;19.50;;;;;;4957055;28;20417;-73
2022/03/12 01:36:31;;;;;;;4.32;2.67;;;5.40;19.60;;;;;;4957129;28;20110;-73
2022/03/12 01:38:57;;;;;;;3.88;2.22;;;5.50;20.10;;;;;;4957071;29;20535;-72
2022/03/12 01:41:32;;;;;;;3.83;2.53;;;5.40;19.70;;;;;;4957071;29;20524;-73
2022/03/12 01:44:00;;;;;;;5.70;2.92;;;5.40;19.80;;;;;;4955047;29;20046;-72
2022/03/12 01:46:41;;;;;;;3.08;2.08;;;5.40;20.10;;;;;;4956983;28;20035;-72
2022/03/12 01:49:12;;;;;;;4.05;2.30;;;5.40;20.10;;;;;;4956907;28;20030;-72
2022/03/12 01:51:41;;;;;;;4.82;2.80;;;5.40;20.50;;;;;;4956726;28;20023;-72
2022/03/12 01:54:08;;;;;;;4.30;2.08;;;5.40;20.40;;;;;;4956768;28;20023;-73
2022/03/12 01:56:34;;;;;;;4.72;2.70;;;5.40;20.30;;;;;;4956573;28;20454;-73
2022/03/12 01:59:01;;;;;;;2.70;1.95;;;5.40;20.10;;;;;;4971328;28;20138;-73
2022/03/12 02:01:28;;;;;;;4.07;2.33;;;5.40;20.00;;;;;;4956458;28;20110;-72
2022/03/12 02:03:56;;;;;;;3.58;2.20;;;5.40;20.00;;;;;;4956466;29;20536;-72
2022/03/12 02:06:24;;;;;;;4.30;2.58;;;5.40;19.80;;;;;;4956381;28;20489;-73
2022/03/12 02:08:53;;;;;;;4.60;2.30;;;5.40;19.60;;;;;;4971213;28;20038;-72
2022/03/12 02:11:29;;;;;;;4.22;2.42;;;5.40;19.50;;;;;;4956314;28;20023;-73
2022/03/12 02:14:02;;;;;;;6.65;2.90;;;5.50;19.50;;;;;;4954664;29;20027;-73
2022/03/12 02:16:29;;;;;;;5.78;2.60;;;5.50;19.60;;;;;;4971215;28;20030;-72
2022/03/12 02:18:55;;;;;;;3.70;2.25;;;5.50;19.60;;;;;;4956400;28;20024;-72
2022/03/12 02:21:43;;;;;;;3.30;2.10;;;5.50;19.40;;;;;;4970753;28;20031;-73
2022/03/12 02:24:15;;;;;;;4.72;2.70;;;5.50;19.30;;;;;;4937016;29;20024;-73
2022/03/12 02:26:45;;;;;;;4.57;2.70;;;5.50;19.20;;;;;;4937858;29;20023;-73
2022/03/12 02:29:15;;;;;;;4.20;2.30;;;5.60;19.20;;;;;;4970843;28;20489;-72
2022/03/12 02:31:45;;;;;;;4.53;2.03;;;5.60;19.20;;;;;;4955956;28;20362;-73
2022/03/12 02:34:12;;;;;;;4.05;2.30;;;5.60;18.90;;;;;;4956097;28;20024;-73
2022/03/12 02:36:41;;;;;;;3.75;2.03;;;5.60;19.00;;;;;;4955950;28;20015;-73
2022/03/12 02:39:07;;;;;;;3.70;2.10;;;5.70;18.70;;;;;;4954722;29;20031;-73
2022/03/12 02:41:34;;;;;;;5.20;1.92;;;5.60;18.60;;;;;;4955915;28;20027;-73
2022/03/12 02:44:00;;;;;;;5.28;2.55;;;5.70;18.80;;;;;;4954941;28;20038;-72
2022/03/12 02:46:29;;;;;;;3.70;2.13;;;5.70;18.80;;;;;;4969549;28;20054;-74
2022/03/12 02:48:56;;;;;;;2.95;2.00;;;5.70;18.80;;;;;;4954820;28;20154;-72
2022/03/12 02:51:22;;;;;;;3.90;2.47;;;5.70;18.70;;;;;;4954384;29;20082;-73
2022/03/12 02:53:50;;;;;;;4.40;2.60;;;5.70;18.70;;;;;;4954573;28;20027;-74
2022/03/12 02:56:18;;;;;;;4.90;2.55;;;5.70;18.70;;;;;;4952053;29;20019;-71
2022/03/12 02:58:43;;;;;;;3.55;2.40;;;5.70;18.70;;;;;;4969124;28;20061;-73
2022/03/12 03:01:14;;;;;;;3.45;2.40;;;5.70;18.60;;;;;;4954231;28;20528;-72
2022/03/12 03:03:44;;;;;;;9.30;2.63;;;5.70;18.50;;;;;;4955477;28;20094;-71
2022/03/12 03:06:13;;;;;;;4.82;2.67;;;5.70;18.40;;;;;;4955613;28;20401;-72
2022/03/12 03:08:39;;;;;;;5.95;2.75;;;5.70;18.60;;;;;;4955389;29;20114;-73
2022/03/12 03:11:16;;;;;;;5.85;2.63;;;5.70;18.50;;;;;;4955259;29;20107;-72
2022/03/12 03:13:44;;;;;;;5.55;2.83;;;5.70;18.50;;;;;;4955348;29;20030;-72
2022/03/12 03:16:15;;;;;;;4.90;2.38;;;5.70;18.50;;;;;;4954438;29;20059;-71
2022/03/12 03:18:41;;;;;;;4.15;2.17;;;5.70;18.50;;;;;;4954049;29;20062;-72
2022/03/12 03:21:12;;;;;;;5.82;2.67;;;5.70;19.10;;;;;;4953773;29;20023;-71
2022/03/12 03:23:38;;;;;;;4.75;2.50;;;5.70;18.60;;;;;;4954247;28;20033;-73
2022/03/12 03:26:05;;;;;;;6.40;2.13;;;5.70;18.70;;;;;;4953957;28;20106;-72
2022/03/12 03:28:31;;;;;;;4.90;2.70;;;5.70;18.70;;;;;;4953880;28;20031;-70
2022/03/12 03:30:56;;;;;;;4.75;2.50;;;5.70;18.70;;;;;;4952775;28;20389;-73
2022/03/12 03:33:25;;;;;;;4.15;2.38;;;5.70;18.80;;;;;;4953844;28;20470;-72
2022/03/12 03:35:51;;;;;;;3.42;2.10;;;5.70;18.90;;;;;;4968587;28;20027;-73
2022/03/12 03:38:18;;;;;;;5.32;2.75;;;5.70;18.90;;;;;;4953856;28;20364;-73
2022/03/12 03:40:44;;;;;;;5.38;2.33;;;5.70;18.90;;;;;;4953842;28;20469;-73
2022/03/12 03:43:13;;;;;;;5.50;3.05;;;5.60;18.80;;;;;;4951368;29;20035;-73
2022/03/12 03:45:40;;;;;;;7.68;2.85;;;5.70;19.00;;;;;;4968652;28;20035;-72
2022/03/12 03:48:13;;;;;;;6.50;2.95;;;5.60;19.10;;;;;;4968516;28;20119;-73
2022/03/12 03:50:40;;;;;;;5.50;3.00;;;5.60;19.00;;;;;;4968514;28;20027;-73
2022/03/12 03:53:06;;;;;;;5.28;2.92;;;5.60;19.00;;;;;;4953840;28;20035;-72
2022/03/12 03:55:32;;;;;;;6.00;3.35;;;5.60;19.10;;;;;;4965993;28;20027;-73
2022/03/12 03:57:59;;;;;;;4.25;2.88;;;5.60;19.10;;;;;;4953151;28;20051;-72
2022/03/12 04:00:26;;;;;;;6.15;3.20;;;5.60;19.30;;;;;;4953273;28;20030;-71
2022/03/12 04:03:02;;;;;;;7.38;2.60;;;5.60;19.20;;;;;;4968538;28;20493;-73
2022/03/12 04:05:30;;;;;;;4.97;2.88;;;5.60;19.20;;;;;;4952265;29;20028;-71
2022/03/12 04:07:56;;;;;;;5.25;3.08;;;5.70;19.30;;;;;;4953717;28;20035;-73
2022/03/12 04:10:21;;;;;;;5.43;2.92;;;5.70;19.80;;;;;;4953325;29;20384;-74
2022/03/12 04:12:47;;;;;;;5.15;2.85;;;5.60;19.60;;;;;;4952105;28;20042;-73
2022/03/12 04:15:13;;;;;;;5.63;3.25;;;5.60;19.50;;;;;;4953623;29;20023;-74
2022/03/12 04:17:43;;;;;;;5.10;3.45;;;5.60;19.50;;;;;;4953734;28;20030;-72
2022/03/12 04:20:09;;;;;;;5.13;3.20;;;5.60;19.50;;;;;;4953385;28;20041;-72
2022/03/12 04:22:38;;;;;;;5.55;2.97;;;5.60;19.50;;;;;;4950959;29;20031;-72
2022/03/12 04:25:05;;;;;;;5.82;3.08;;;5.60;19.70;;;;;;4953258;28;20058;-73
2022/03/12 04:27:30;;;;;;;4.55;2.92;;;5.60;19.70;;;;;;4953632;28;20032;-72
2022/03/12 04:29:56;;;;;;;4.78;2.90;;;5.60;19.70;;;;;;4967928;28;20366;-73
2022/03/12 04:32:23;;;;;;;8.75;3.83;;;5.60;19.80;;;;;;4953271;29;20035;-74
2022/03/12 04:34:49;;;;;;;4.80;3.13;;;5.50;19.80;;;;;;4953227;28;20102;-72
2022/03/12 04:37:15;;;;;;;8.63;3.30;;;5.60;19.90;;;;;;4953256;28;20026;-72
2022/03/12 04:39:40;;;;;;;6.25;2.95;;;5.50;20.00;;;;;;4953362;29;20023;-72
2022/03/12 04:42:07;;;;;;;5.97;3.47;;;5.50;20.00;;;;;;4953298;28;20038;-74
2022/03/12 04:44:32;;;;;;;6.55;3.17;;;5.50;20.00;;;;;;4950536;28;20024;-72
2022/03/12 04:46:58;;;;;;;5.70;3.10;;;5.50;20.00;;;;;;4956709;28;20046;-73
2022/03/12 04:49:24;;;;;;;6.95;3.70;;;5.50;20.00;;;;;;4956617;29;20027;-72
2022/03/12 04:51:50;;;;;;;4.97;3.00;;;5.40;20.20;;;;;;4956921;28;20031;-73
2022/03/12 04:54:16;;;;;;;5.15;3.35;;;5.40;20.20;;;;;;4956509;28;20381;-73
2022/03/12 04:56:42;;;;;;;4.28;2.85;;;5.40;20.20;;;;;;4956622;28;20019;-73
2022/03/12 04:59:08;;;;;;;8.82;2.92;;;5.40;20.20;;;;;;4956213;28;20391;-72
2022/03/12 05:01:34;;;;;;;5.50;3.20;;;5.30;20.20;;;;;;4956358;28;20027;-72
2022/03/12 05:03:59;;;;;;;6.97;3.67;;;5.30;20.50;;;;;;4956548;28;20042;-75
2022/03/12 05:06:29;;;;;;;5.38;3.20;;;5.30;21.00;;;;;;4956662;28;20051;-72
2022/03/12 05:08:56;;;;;;;4.22;2.88;;;5.20;21.00;;;;;;4956346;28;20043;-73
2022/03/12 05:11:22;;;;;;;6.95;3.67;;;5.20;21.00;;;;;;4956183;28;20027;-72
2022/03/12 05:13:53;;;;;;;6.93;3.30;;;5.10;21.30;;;;;;4956477;28;20027;-72
2022/03/12 05:16:19;;;;;;;7.40;4.10;;;5.10;21.30;;;;;;4972187;28;20086;-71
2022/03/12 05:18:45;;;;;;;9.65;4.22;;;5.00;21.40;;;;;;4957375;28;20019;-74
2022/03/12 05:21:11;;;;;;;7.82;4.32;;;5.00;21.70;;;;;;4957398;28;20102;-73
2022/03/12 05:23:36;;;;;;;8.40;4.30;;;4.90;21.70;;;;;;4972194;28;20043;-72
2022/03/12 05:26:03;;;;;;;6.22;3.72;;;4.90;21.70;;;;;;4957233;28;20023;-73
2022/03/12 05:28:31;;;;;;;6.70;3.85;;;4.80;21.70;;;;;;4957265;28;20385;-73
2022/03/12 05:30:59;;;;;;;9.85;4.70;;;4.80;21.80;;;;;;4971958;28;20081;-72
2022/03/12 05:33:26;;;;;;;6.82;3.85;;;4.80;21.80;;;;;;4957097;28;20098;-72
2022/03/12 05:35:54;;;;;;;6.13;3.40;;;4.80;21.90;;;;;;4971939;28;20035;-73
2022/03/12 05:38:24;;;;;;;7.03;3.65;;;4.70;22.10;;;;;;4957043;28;20027;-73
2022/03/12 05:40:51;;;;;;;6.68;3.67;;;4.70;22.20;;;;;;4957100;28;20034;-73
2022/03/12 05:43:17;;;;;;;10.48;4.85;;;4.60;22.20;;;;;;4971783;28;20031;-74
2022/03/12 05:45:47;;;;;;;7.18;3.90;;;4.60;22.50;;;;;;4955965;28;20110;-74
2022/03/12 05:48:14;;;;;;;6.88;3.95;;;4.60;22.60;;;;;;4956192;28;20166;-72
2022/03/12 05:50:41;;;;;;;6.95;3.92;;;4.60;22.70;;;;;;4952654;29;20034;-73
2022/03/12 05:53:09;;;;;;;9.13;4.03;;;4.50;22.80;;;;;;4955847;29;20027;-73
2022/03/12 05:55:38;;;;;;;5.28;3.25;;;4.50;22.80;;;;;;4955711;29;20114;-73
2022/03/12 05:58:05;;;;;;;11.60;3.63;;;4.50;22.90;;;;;;4954035;28;20046;-73
2022/03/12 06:00:32;;;;;;;7.93;3.97;;;4.50;22.90;;;;;;4973393;28;20031;-71
2022/03/12 06:03:01;;;;;;;6.40;4.05;;;4.50;22.90;;;;;;4965618;28;20038;-72
2022/03/12 06:05:28;;;;;;;8.85;3.80;;;4.50;22.90;;;;;;4951136;29;20027;-72
2022/03/12 06:07:55;;;;;;;6.45;3.38;;;4.50;23.00;;;;;;4956717;28;20055;-71
2022/03/12 06:10:29;;;;;;;7.75;3.10;;;4.50;23.00;;;;;;4939014;28;20026;-72
2022/03/12 06:12:56;;;;;;;6.03;3.28;;;4.50;23.10;;;;;;4962843;28;20110;-73
2022/03/12 06:15:25;;;;;;;8.48;4.47;;;4.60;23.00;;;;;;4958566;28;20033;-71
2022/03/12 06:17:51;;;;;;;5.22;3.45;;;4.60;23.10;;;;;;4981894;28;20028;-72
2022/03/12 06:20:21;;;;;;;6.07;3.30;;;4.70;23.00;;;;;;4971088;28;20473;-71
2022/03/12 06:22:49;;;;;;;9.35;3.28;;;4.70;23.00;;;;;;4985050;28;20043;-74
2022/03/12 06:25:17;;;;;;;7.45;3.33;;;4.70;23.00;;;;;;4958378;28;20500;-73
2022/03/12 06:27:53;;;;;;;6.85;3.60;;;4.80;23.10;;;;;;4968939;28;20401;-73
2022/03/12 06:30:21;;;;;;;11.82;3.53;;;4.80;23.00;;;;;;4956687;28;20023;-73
2022/03/12 06:32:48;;;;;;;7.82;4.25;;;4.90;22.90;;;;;;4955880;28;20027;-74
2022/03/12 06:35:15;;;;;;;7.70;3.90;;;5.00;23.00;;;;;;4960033;28;20480;-73
2022/03/12 06:37:41;;;;;;;6.15;3.67;;;5.00;22.80;;;;;;4973257;28;20055;-71
2022/03/12 06:40:11;;;;;;;8.05;4.32;;;5.10;22.70;;;;;;4964961;28;20019;-73
2022/03/12 06:42:39;;;;;;;7.13;4.40;;;5.20;22.70;;;;;;4967598;28;20023;-74
2022/03/12 06:45:08;;;;;;;12.68;6.28;;;5.30;22.80;;;;;;4952547;28;20183;-73
2022/03/12 06:47:35;;;;;;;9.98;5.20;;;5.40;22.70;;;;;;4950567;28;20086;-71
2022/03/12 06:50:01;;;;;;;7.63;3.97;;;5.50;22.50;;;;;;4942312;28;20035;-73
2022/03/12 06:52:28;;;;;;;5.38;3.60;;;5.50;22.30;;;;;;4954170;29;20031;-72
2022/03/12 06:54:55;;;;;;;6.70;3.25;;;5.60;22.20;;;;;;4961441;28;20024;-72
2022/03/12 06:57:21;;;;;;;5.22;3.13;;;5.70;22.10;;;;;;4957977;28;20106;-72
2022/03/12 06:59:47;;;;;;;6.03;3.58;;;5.80;21.90;;;;;;4954456;28;20118;-74
2022/03/12 07:02:13;;;;;;;11.52;6.47;;;5.90;21.90;;;;;;4959113;28;20098;-71
2022/03/12 07:04:39;;;;;;;15.07;6.28;;;5.90;21.90;;;;;;4957135;28;20027;-73
2022/03/12 07:07:05;;;;;;;12.13;5.55;;;6.00;22.00;;;;;;4953467;28;20037;-72
2022/03/12 07:09:31;;;;;;;11.80;5.10;;;6.10;21.90;;;;;;4955188;28;20027;-72
2022/03/12 07:11:58;;;;;;;15.65;4.55;;;6.20;21.90;;;;;;4944810;28;20385;-72
2022/03/12 07:14:27;;;;;;;9.75;3.88;;;6.20;21.80;;;;;;4948262;28;20020;-74
2022/03/12 07:16:54;;;;;;;9.35;4.18;;;6.30;21.80;;;;;;4969728;28;20082;-74
2022/03/12 07:19:20;;;;;;;7.90;3.67;;;6.30;21.50;;;;;;4969624;28;20034;-73
2022/03/12 07:21:46;;;;;;;7.28;3.63;;;6.40;21.40;;;;;;4962212;28;20035;-71
2022/03/12 07:24:12;;;;;;;4.85;3.17;;;6.50;21.40;;;;;;4956380;28;20083;-71
2022/03/12 07:26:39;;;;;;;6.22;3.22;;;6.60;21.30;;;;;;4957928;28;20469;-72
2022/03/12 07:29:05;;;;;;;5.38;3.42;;;6.60;21.20;;;;;;4945745;29;20023;-73
2022/03/12 07:31:31;;;;;;;7.00;3.45;;;6.70;21.20;;;;;;4955024;28;20377;-71
2022/03/12 07:33:57;;;;;;;5.15;3.05;;;6.80;21.10;;;;;;4969983;28;20034;-71
2022/03/12 07:36:23;;;;;;;7.13;3.53;;;6.90;21.00;;;;;;4969588;28;20058;-71
2022/03/12 07:38:48;;;;;;;7.07;2.67;;;6.90;20.80;;;;;;4957845;28;20035;-73
2022/03/12 07:41:15;;;;;;;5.40;2.90;;;7.00;21.00;;;;;;4963164;28;20500;-73
2022/03/12 07:43:41;;;;;;;7.57;3.30;;;7.00;21.10;;;;;;4974262;28;20064;-72
2022/03/12 07:46:07;;;;;;;6.45;2.75;;;7.10;20.90;;;;;;4957129;28;20518;-73
2022/03/12 07:48:33;;;;;;;8.02;3.20;;;7.20;20.80;;;;;;4962452;28;20102;-73
2022/03/12 07:51:01;;;;;;;5.18;2.88;;;7.30;20.60;;;;;;4955762;28;20483;-72
2022/03/12 07:53:28;;;;;;;6.85;3.30;;;7.30;20.40;;;;;;4954771;28;20015;-73
2022/03/12 07:55:54;;;;;;;8.07;3.20;;;7.40;20.40;;;;;;4954853;28;20027;-72
2022/03/12 07:58:20;;;;;;;9.30;4.95;;;7.50;20.40;;;;;;4954664;28;20059;-73
2022/03/12 08:00:46;;;;;;;10.82;5.03;;;7.60;20.50;;;;;;4969493;28;20027;-72
2022/03/12 08:03:12;;;;;;;7.60;4.03;;;7.70;20.30;;;;;;4957913;28;20051;-71
2022/03/12 08:05:38;;;;;;;6.50;3.17;;;7.70;20.20;;;;;;4970442;28;20034;-72
2022/03/12 08:08:04;;;;;;;13.50;2.83;;;7.80;20.20;;;;;;4954771;28;20537;-72
2022/03/12 08:11:24;;;;;;;3.75;2.58;;;7.90;20.00;;;;;;4954671;29;20079;-73
2022/03/12 08:13:19;;;;;;;4.50;2.88;;;7.90;20.00;;;;;;4954351;28;20043;-72
2022/03/12 08:15:45;;;;;;;4.97;2.35;;;8.00;19.80;;;;;;4954416;28;20106;-72
2022/03/12 08:18:11;;;;;;;5.40;2.70;;;8.00;19.90;;;;;;4954686;28;20034;-71
2022/03/12 08:20:37;;;;;;;4.93;2.65;;;8.10;19.90;;;;;;4956204;28;20114;-72
2022/03/12 08:23:04;;;;;;;5.30;2.75;;;8.20;19.90;;;;;;4970242;28;20114;-73
2022/03/12 08:25:29;;;;;;;4.63;2.63;;;8.30;20.00;;;;;;4957701;28;20125;-72
2022/03/12 08:27:55;;;;;;;5.03;2.83;;;8.30;19.80;;;;;;4952201;29;20035;-71
2022/03/12 08:30:21;;;;;;;6.50;3.10;;;8.40;19.40;;;;;;4957474;29;20023;-73
2022/03/12 08:32:47;;;;;;;4.45;2.75;;;8.50;19.40;;;;;;4958115;28;20059;-73
2022/03/12 08:35:13;;;;;;;11.75;3.22;;;8.50;19.20;;;;;;4958084;29;20461;-74
2022/03/12 08:37:39;;;;;;;5.18;3.15;;;8.60;19.40;;;;;;4958207;28;20035;-71
2022/03/12 08:40:06;;;;;;;7.15;3.00;;;8.70;19.20;;;;;;4957105;28;20082;-71
2022/03/12 08:42:34;;;;;;;8.35;4.60;;;8.70;19.10;;;;;;4972700;28;20401;-72
2022/03/12 08:45:00;;;;;;;9.77;4.47;;;8.80;18.90;;;;;;4957254;28;20563;-71
2022/03/12 08:47:26;;;;;;;8.52;4.35;;;8.90;19.00;;;;;;4957393;28;20047;-73
2022/03/12 08:49:52;;;;;;;8.57;4.20;;;9.00;18.70;;;;;;4957958;28;20054;-74
2022/03/12 08:52:18;;;;;;;7.75;3.78;;;9.10;18.20;;;;;;4957551;28;20079;-74
2022/03/12 08:54:43;;;;;;;7.43;3.38;;;9.10;18.50;;;;;;4957339;29;20130;-73
2022/03/12 08:57:09;;;;;;;6.63;2.95;;;9.20;18.40;;;;;;4958778;28;20090;-73
2022/03/12 08:59:35;;;;;;;7.03;3.35;;;9.20;18.40;;;;;;4983406;28;20032;-73
2022/03/12 09:02:01;;;;;;;6.93;3.78;;;9.30;18.30;;;;;;4971859;28;20024;-72
2022/03/12 09:04:27;;;;;;;6.50;3.60;;;9.40;17.80;;;;;;4957627;29;20051;-70
2022/03/12 09:06:53;;;;;;;6.38;3.25;;;9.40;17.60;;;;;;4957218;29;20027;-73
2022/03/12 09:09:18;;;;;;;12.50;3.45;;;9.50;17.80;;;;;;4957481;29;20466;-71
2022/03/12 09:11:44;;;;;;;6.85;3.60;;;9.60;17.60;;;;;;4957400;29;20086;-73
2022/03/12 09:14:10;;;;;;;6.10;3.08;;;9.60;17.60;;;;;;4972253;28;20038;-72
2022/03/12 09:16:37;;;;;;;5.25;3.00;;;9.70;17.20;;;;;;4957033;28;20354;-72
2022/03/12 09:19:04;;;;;;;7.65;3.92;;;9.70;17.30;;;;;;4964105;28;20031;-71
2022/03/12 09:21:30;;;;;;;4.43;2.75;;;9.80;17.10;;;;;;4951186;28;21070;-71
2022/03/12 09:23:55;;;;;;;6.40;2.88;;;9.80;17.10;;;;;;4964179;28;20440;-72
2022/03/12 09:26:22;;;;;;;7.43;3.38;;;9.90;17.30;;;;;;4978580;28;20029;-72
2022/03/12 09:28:48;;;;;;;6.25;3.17;;;9.90;17.10;;;;;;4972073;28;20474;-72
2022/03/12 09:31:15;;;;;;;4.53;2.70;;;10.00;17.30;;;;;;4954633;28;20035;-74
2022/03/12 09:33:41;;;;;;;6.97;3.50;;;10.00;17.30;;;;;;4950589;28;20106;-73
2022/03/12 09:36:09;;;;;;;8.30;3.85;;;10.10;17.40;;;;;;4964602;28;20155;-72
2022/03/12 09:38:36;;;;;;;4.93;2.95;;;10.10;17.00;;;;;;4963066;28;20025;-72
2022/03/12 09:41:02;;;;;;;9.98;4.68;;;10.20;17.60;;;;;;4968875;28;20033;-72
2022/03/12 09:43:28;;;;;;;5.57;3.38;;;10.20;17.30;;;;;;4967574;28;20031;-71
2022/03/12 09:45:54;;;;;;;7.03;3.13;;;10.30;17.40;;;;;;4972753;28;20038;-73
2022/03/12 09:48:20;;;;;;;8.90;3.83;;;10.30;17.10;;;;;;4961118;28;20085;-70
2022/03/12 09:50:46;;;;;;;6.75;3.03;;;10.40;16.80;;;;;;4956747;29;20035;-72
2022/03/12 09:53:12;;;;;;;10.43;4.13;;;10.40;16.50;;;;;;4952691;28;20114;-73
2022/03/12 09:55:39;;;;;;;5.93;3.40;;;10.50;16.70;;;;;;4950759;28;20024;-72
2022/03/12 09:58:04;;;;;;;8.32;3.90;;;10.50;16.70;;;;;;4952080;29;20111;-74
2022/03/12 10:00:30;;;;;;;6.95;3.72;;;10.60;16.90;;;;;;4965176;28;20035;-72
2022/03/12 10:02:57;;;;;;;12.60;4.50;;;10.60;17.10;;;;;;4956820;29;20031;-73
2022/03/12 10:05:23;;;;;;;7.88;4.00;;;10.70;17.10;;;;;;4956544;29;20046;-72
2022/03/12 10:07:49;;;;;;;12.00;5.03;;;10.80;17.00;;;;;;4957492;28;20505;-71
2022/03/12 10:10:19;;;;;;;11.35;4.15;;;10.80;16.90;;;;;;4971070;28;20035;-72
2022/03/12 10:12:45;;;;;;;5.00;2.92;;;10.80;16.70;;;;;;4963889;28;20027;-72
2022/03/12 10:15:14;;;;;;;8.23;3.58;;;10.90;16.60;;;;;;4990314;28;20392;-73
2022/03/12 10:17:41;;;;;;;12.07;4.38;;;10.90;16.70;;;;;;4989056;28;20032;-72
2022/03/12 10:20:10;;;;;;;7.55;3.97;;;11.00;17.10;;;;;;4957190;28;20380;-72
2022/03/12 10:22:36;;;;;;;11.40;4.65;;;11.10;17.30;;;;;;4965311;28;20174;-72
2022/03/12 10:25:03;;;;;;;6.55;3.88;;;11.10;17.00;;;;;;4957471;28;20035;-72
2022/03/12 10:27:29;;;;;;;7.72;4.07;;;11.10;16.70;;;;;;4961321;28;20019;-73
2022/03/12 10:29:55;;;;;;;8.30;4.32;;;11.20;16.50;;;;;;4975454;28;20189;-71
2022/03/12 10:32:29;;;;;;;8.70;4.25;;;11.20;16.30;;;;;;4990252;28;20031;-73
2022/03/12 10:34:59;;;;;;;10.43;4.72;;;11.30;16.40;;;;;;4967273;28;20027;-73
2022/03/12 10:37:31;;;;;;;9.48;3.45;;;11.30;16.50;;;;;;4971817;28;20027;-72
2022/03/12 10:40:16;;;;;;;6.97;3.33;;;11.40;16.40;;;;;;4986465;28;20023;-74
2022/03/12 10:43:12;;;;;;;8.25;3.88;;;11.40;16.40;;;;;;4954293;28;20023;-73
2022/03/12 10:45:52;;;;;;;8.93;4.70;;;11.40;16.40;;;;;;4951428;29;20437;-72
2022/03/12 10:48:19;;;;;;;10.23;4.50;;;11.50;16.30;;;;;;4952750;29;20037;-72
2022/03/12 10:50:48;;;;;;;10.98;4.45;;;11.60;16.30;;;;;;4948896;29;20032;-74
2022/03/12 10:53:15;;;;;;;8.73;3.97;;;11.60;16.30;;;;;;4946608;28;20067;-72
2022/03/12 10:55:47;;;;;;;8.13;3.83;;;11.70;16.40;;;;;;4973488;28;20047;-71
2022/03/12 10:58:21;;;;;;;9.60;3.50;;;11.70;16.30;;;;;;4955205;28;20075;-74
2022/03/12 11:00:48;;;;;;;;;;;11.80;16.10;;;;;;4972943;28;20031;-74
2022/03/12 11:03:20;;;;;;;10.27;3.28;;;11.90;16.60;;;;;;4951652;28;20432;-71
2022/03/12 11:05:47;;;;;;;10.85;4.28;;;11.90;16.50;;;;;;4941848;29;20038;-71
2022/03/12 11:08:24;;;;;;;5.82;3.40;;;12.00;16.30;;;;;;4954113;29;20106;-73
2022/03/12 11:10:55;;;;;;;9.35;3.60;;;12.00;16.00;;;;;;4935760;29;20036;-72
2022/03/12 11:13:43;;;;;;;7.35;3.75;;;12.10;15.90;;;;;;4959761;28;20114;-73
2022/03/12 11:16:32;;;;;;;5.57;3.30;;;12.10;15.80;;;;;;4963194;28;20077;-73
2022/03/12 11:19:11;;;;;;;6.18;3.53;;;12.20;16.10;;;;;;4949886;28;20027;-72
2022/03/12 11:21:51;;;;;;;11.43;4.47;;;12.20;15.80;;;;;;4947394;28;20105;-72
2022/03/12 11:24:25;;;;;;;7.25;3.97;;;12.30;15.90;;;;;;4940897;28;20149;-72
2022/03/12 11:26:59;;;;;;;8.52;3.70;;;12.30;15.80;;;;;;4964024;28;20413;-73
2022/03/12 11:29:27;;;;;;;15.88;4.22;;;12.30;15.70;;;;;;4953440;28;20182;-72
2022/03/12 11:31:57;;;;;;;14.13;4.35;;;12.40;15.60;;;;;;4955063;28;20097;-74
2022/03/12 11:34:32;;;;;;;7.45;3.80;;;12.40;15.30;;;;;;4961257;28;20086;-72
2022/03/12 11:37:21;;;;;;;5.93;3.25;;;12.50;16.00;;;;;;4976255;28;20078;-71
2022/03/12 11:39:52;;;;;;;5.18;3.03;;;12.50;15.60;;;;;;4954607;28;20024;-72
2022/03/12 11:42:20;;;;;;;9.73;4.00;;;12.60;15.60;;;;;;4954439;28;20035;-72
2022/03/12 11:44:51;;;;;;;5.38;3.00;;;12.60;15.80;;;;;;4951069;29;20124;-74
2022/03/12 11:47:22;;;;;;;4.90;3.00;;;12.70;15.60;;;;;;4943870;29;20031;-71
2022/03/12 11:49:50;;;;;;;12.70;3.40;;;12.80;15.50;;;;;;4952109;28;20027;-73
2022/03/12 11:52:17;;;;;;;9.43;2.70;;;12.80;15.20;;;;;;4955198;28;20512;-73
2022/03/12 11:54:45;;;;;;;10.18;3.55;;;12.90;15.40;;;;;;4983480;28;20175;-72
2022/03/12 11:57:31;;;;;;;5.43;2.90;;;12.90;15.40;;;;;;4973745;28;20051;-73
2022/03/12 11:59:58;;;;;;;5.53;2.65;;;13.00;15.60;;;;;;4957290;29;20079;-72
2022/03/12 12:02:33;;;;;;;3.65;2.50;;;13.00;15.40;;;;;;4969842;28;20031;-72
2022/03/12 12:05:13;;;;;;;5.00;2.53;;;13.10;15.40;;;;;;4955078;28;20047;-72
2022/03/12 12:07:45;;;;;;;4.82;2.55;;;13.20;14.80;;;;;;4980753;28;20024;-74
2022/03/12 12:10:13;;;;;;;10.52;2.67;;;13.20;14.80;;;;;;4957644;29;20051;-71
2022/03/12 12:12:43;;;;;;;4.55;2.22;;;13.30;14.70;;;;;;4969734;28;20031;-72
2022/03/12 12:15:14;;;;;;;7.90;2.70;;;13.40;14.70;;;;;;4969638;28;20075;-73
2022/03/12 12:17:41;;;;;;;3.20;2.30;;;13.40;14.40;;;;;;4971081;28;20070;-73
2022/03/12 12:20:08;;;;;;;5.00;2.60;;;13.40;14.40;;;;;;4959781;28;20028;-72
2022/03/12 12:22:33;;;;;;;5.43;2.72;;;13.50;14.30;;;;;;4957246;29;20031;-73
2022/03/12 12:25:03;;;;;;;4.40;2.70;;;13.50;14.00;;;;;;4963251;28;20165;-72
2022/03/12 12:27:45;;;;;;;3.75;2.03;;;13.60;14.20;;;;;;4982423;28;20122;-71
2022/03/12 12:30:16;;;;;;;6.22;3.15;;;13.60;14.10;;;;;;4976029;28;20384;-73
2022/03/12 12:32:48;;;;;;;5.88;2.53;;;13.60;13.70;;;;;;4956645;28;20027;-71
2022/03/12 12:35:16;;;;;;;5.80;2.53;;;13.70;13.60;;;;;;4973758;28;20038;-73
2022/03/12 12:37:51;;;;;;;3.97;2.60;;;13.70;13.60;;;;;;4965352;28;20028;-75
2022/03/12 12:40:21;;;;;;;3.55;2.42;;;13.80;13.90;;;;;;4957618;28;20023;-72
2022/03/12 12:42:51;;;;;;;3.47;2.40;;;13.80;14.00;;;;;;4986378;28;20042;-74
2022/03/12 12:48:38;;;;;;;10.40;2.38;;;13.90;13.50;;;;;;4974495;28;20042;-73
2022/03/12 12:51:11;;;;;;;4.32;2.65;;;13.90;13.80;;;;;;4938555;29;20027;-72
2022/03/12 12:53:47;;;;;;;2.70;2.00;;;14.00;13.50;;;;;;4938524;29;20123;-72
2022/03/12 12:56:33;;;;;;;3.72;2.28;;;14.00;13.30;;;;;;4954192;29;20421;-74
2022/03/12 12:58:58;;;;;;;6.82;2.50;;;14.10;13.70;;;;;;4966591;28;20381;-72
2022/03/12 13:01:39;;;;;;;6.70;2.40;;;14.10;13.40;;;;;;4959691;28;20030;-72